Latest Weather Observations for Mullion

IDN60801

Issued at 9:42 am EDT Friday 9 December 2022 (issued every 10 minutes, with the page automatically refreshed every 10 minutes)

About weather observations | Map of weather stations | Latest weather observations for NSW | Other Formats
Station Details ID: 250070 Name: MULLION (PCS) Lat: -35.11 Lon: 148.85 Height: 750.0 m

Portable automatic weather stations (PAWS) are operated by other organisations, such as Fire and Emergency Services, and are included here by agreement. Portable stations may be deployed to a location for a short period and their location may be subject to change without notice. Wind observations from these stations are provided from heights of either three (3) or ten (10) metres above ground level (AGL).

Data from the previous 72 hours. | See also: Recent months for locations in New South Wales
Date/Time
EDT
Temp
°C
App
Temp
°C
Dew
Point
°C
Rel
Hum
%
Delta-T
°C
Wind Press
QNH
hPa
Press
MSL
hPa
Rain since
9am
mm
Dir  Spd
km/h
Gust
km/h
Spd
kts
Gust
kts
09/09:30am 11.0 3.8 1.0 50 4.4 SSE 28 32 15 17 1015.5 - 0.0
09/09:20am 10.4 3.3 1.6 54 3.9 SE 28 30 15 16 1015.5 - 0.0
09/09:10am 10.2 3.4 3.0 61 3.3 SE 28 32 15 17 1015.5 - 0.0
09/09:00am 9.8 3.3 2.5 60 3.3 SSE 26 30 14 16 1015.6 - 0.0
09/08:50am 9.3 2.8 2.6 63 3.0 SSE 26 30 14 16 1015.5 - 0.0
09/08:40am 8.7 1.9 2.9 67 2.6 SE 28 30 15 16 1015.4 - 0.0
09/08:30am 8.3 1.3 2.2 65 2.7 SE 28 30 15 16 1015.3 - 0.0
09/08:20am 8.5 1.5 2.2 64 2.8 SE 28 30 15 16 1015.3 - 0.0
09/08:10am 7.7 -0.1 1.9 67 2.5 SE 32 33 17 18 1015.2 - 0.0
09/08:00am 7.4 -0.4 1.5 66 2.5 SE 32 35 17 19 1014.9 - 0.0
09/07:50am 7.3 -0.1 1.8 68 2.4 SE 30 32 16 17 1014.9 - 0.0
09/07:40am 6.9 -0.1 1.8 70 2.2 SE 28 32 15 17 1014.9 - 0.0
09/07:30am 6.5 -1.3 1.6 71 2.1 SSE 32 33 17 18 1014.6 - 0.0
09/07:20am 6.2 -1.3 1.5 72 2.0 SE 30 33 16 18 1014.6 - 0.0
09/07:10am 5.8 -1.6 1.6 74 1.8 SE 30 32 16 17 1014.4 - 0.0
09/07:00am 5.5 -0.7 2.1 79 1.4 SE 24 26 13 14 1014.5 - 0.0
09/06:50am 5.4 -0.4 2.1 79 1.4 SE 22 24 12 13 1014.3 - 0.0
09/06:40am 5.0 -1.7 1.7 79 1.4 SE 26 26 14 14 1014.1 - 0.0
09/06:30am 4.6 -2.5 1.5 80 1.3 SSE 28 30 15 16 1013.9 - 0.0
09/06:20am 4.5 -1.8 1.3 80 1.3 SE 24 26 13 14 1013.7 - 0.0
09/06:10am 4.4 -2.3 1.3 80 1.3 SE 26 28 14 15 1013.7 - 0.0
09/06:00am 4.3 -2.5 1.1 80 1.3 SE 26 26 14 14 1013.7 - 0.0
09/05:50am 4.2 -2.2 1.0 80 1.3 SE 24 26 13 14 1013.5 - 0.0
09/05:40am 4.4 -2.0 0.8 77 1.5 SSE 24 26 13 14 1013.6 - 0.0
09/05:30am 4.4 -2.0 0.9 78 1.4 SSE 24 26 13 14 1013.5 - 0.0
09/05:20am 4.5 -1.5 1.1 78 1.4 SSE 22 24 12 13 1013.5 - 0.0
09/05:10am 4.6 -1.4 0.9 77 1.5 SE 22 24 12 13 1013.4 - 0.0
09/05:00am 4.6 -1.4 0.8 76 1.5 SE 22 24 12 13 1013.5 - 0.0
09/04:50am 4.7 -1.4 0.7 75 1.6 SE 22 26 12 14 1013.7 - 0.0
09/04:40am 4.9 -1.9 0.8 75 1.7 SSE 26 28 14 15 1013.4 - 0.0
09/04:30am 5.0 -1.0 0.8 74 1.7 SSE 22 24 12 13 1013.3 - 0.0
09/04:20am 5.1 -1.3 0.7 73 1.8 SSE 24 26 13 14 1013.4 - 0.0
09/04:10am 5.2 -1.3 0.6 72 1.9 SSE 24 26 13 14 1013.3 - 0.0
09/04:00am 5.4 -1.1 0.4 70 2.0 S 24 26 13 14 1013.3 - 0.0
09/03:50am 5.4 -1.0 0.9 73 1.8 S 24 26 13 14 1013.3 - 0.0
09/03:40am 5.7 -0.3 0.9 71 2.0 S 22 24 12 13 1013.4 - 0.0
09/03:30am 5.7 -0.3 0.8 71 2.0 S 22 22 12 12 1013.4 - 0.0
09/03:20am 5.7 -0.3 1.1 72 1.9 S 22 24 12 13 1013.4 - 0.0
09/03:10am 5.8 -0.2 1.3 73 1.9 S 22 24 12 13 1013.4 - 0.0
09/03:00am 6.2 0.6 1.2 70 2.1 S 20 22 11 12 1013.4 - 0.0
09/02:50am 6.5 0.9 1.1 68 2.3 S 20 22 11 12 1013.3 - 0.0
09/02:40am 6.4 0.8 1.2 69 2.2 S 20 20 11 11 1013.4 - 0.0
09/02:30am 6.3 0.7 1.1 69 2.2 S 20 20 11 11 1013.4 - 0.0
09/02:20am 6.2 0.6 1.3 71 2.0 S 20 20 11 11 1013.3 - 0.0
09/02:10am 6.6 1.0 1.1 68 2.3 SSE 20 20 11 11 1013.4 - 0.0
09/02:00am 6.6 1.0 1.3 69 2.2 S 20 22 11 12 1013.4 - 0.0
09/01:50am 6.7 0.7 1.2 68 2.3 S 22 24 12 13 1013.5 - 0.0
09/01:40am 6.8 1.2 1.2 67 2.4 SSE 20 22 11 12 1013.5 - 0.0
09/01:30am 6.7 1.1 1.3 68 2.3 S 20 22 11 12 1013.6 - 0.0
09/01:20am 6.9 1.5 1.4 68 2.3 SSE 19 20 10 11 1013.8 - 0.0
09/01:10am 7.1 1.5 1.2 66 2.5 SSE 20 22 11 12 1013.8 - 0.0
09/01:00am 7.2 1.2 1.2 65 2.5 SSE 22 24 12 13 1013.8 - 0.0
09/12:50am 7.1 1.5 1.3 66 2.4 SSE 20 22 11 12 1013.9 - 0.0
09/12:40am 7.5 1.9 0.9 63 2.8 SSE 20 22 11 12 1014.1 - 0.0
09/12:30am 7.7 2.2 0.7 61 2.9 SSE 19 20 10 11 1014.2 - 0.0
09/12:20am 7.8 2.3 0.6 60 3.0 SSE 19 20 10 11 1014.1 - 0.0
09/12:10am 8.2 2.5 0.3 57 3.3 SSE 20 22 11 12 1014.2 - 0.0
09/12:00am 8.4 3.2 -0.2 54 3.5 SSE 17 19 9 10 1014.3 - 0.0
 
Date/Time
EDT
Temp
°C
App
Temp
°C
Dew
Point
°C
Rel
Hum
%
Delta-T
°C
Wind Press
QNH
hPa
Press
MSL
hPa
Rain since
9am
mm
Dir  Spd
km/h
Gust
km/h
Spd
kts
Gust
kts
08/11:50pm 8.6 3.8 -0.1 54 3.6 SSE 15 17 8 9 1014.3 - 0.0
08/11:40pm 8.9 3.3 -0.1 53 3.7 SSE 19 20 10 11 1014.2 - 0.0
08/11:30pm 9.2 4.3 -0.2 52 3.9 S 15 17 8 9 1014.1 - 0.0
08/11:20pm 9.6 5.1 0.0 51 4.0 SSE 13 15 7 8 1014.3 - 0.0
08/11:10pm 9.9 5.8 0.0 50 4.2 S 11 11 6 6 1014.1 - 0.0
08/11:00pm 10.0 6.0 0.3 51 4.1 SSE 11 13 6 7 1014.2 - 0.0
08/10:50pm 10.1 5.7 0.5 51 4.1 SSE 13 15 7 8 1013.9 - 0.0
08/10:40pm 10.4 6.5 1.4 53 3.9 SSW 11 11 6 6 1013.9 - 0.0
08/10:30pm 10.4 6.2 1.5 54 3.9 S 13 17 7 9 1013.8 - 0.0
08/10:20pm 10.5 6.6 1.2 52 4.0 SSE 11 19 6 10 1013.8 - 0.0
08/10:10pm 10.7 6.9 1.7 53 4.0 S 11 20 6 11 1013.6 - 0.0
08/10:00pm 10.8 4.5 1.4 52 4.1 SW 24 28 13 15 1013.5 - 0.0
08/09:50pm 10.8 3.7 1.5 52 4.1 WSW 28 30 15 16 1013.4 - 0.0
08/09:40pm 11.0 2.6 1.6 52 4.1 WSW 35 41 19 22 1013.1 - 0.0
08/09:30pm 11.2 2.3 1.0 49 4.4 WSW 37 41 20 22 1012.8 - 0.0
08/09:20pm 11.0 2.9 0.9 49 4.4 WSW 33 41 18 22 1012.6 - 0.0
08/09:10pm 11.1 3.0 0.9 49 4.4 WSW 33 37 18 20 1012.5 - 0.0
08/09:00pm 11.2 3.1 0.8 48 4.5 WSW 33 41 18 22 1012.3 - 0.0
08/08:50pm 11.1 3.7 1.6 52 4.2 WSW 30 32 16 17 1012.2 - 0.0
08/08:40pm 11.3 3.8 0.9 48 4.5 WSW 30 35 16 19 1012.1 - 0.0
08/08:30pm 11.4 3.9 0.9 48 4.6 WSW 30 37 16 20 1012.0 - 0.0
08/08:20pm 11.3 4.2 1.3 50 4.4 WSW 28 32 15 17 1011.9 - 0.0
08/08:10pm 11.8 5.4 1.0 47 4.7 W 24 28 13 15 1011.8 - 0.0
08/08:00pm 12.0 6.0 0.8 46 4.9 W 22 26 12 14 1011.8 - 0.0
08/07:50pm 12.8 6.0 0.5 43 5.4 W 26 32 14 17 1011.7 - 0.0
08/07:40pm 13.2 6.3 0.3 41 5.6 W 26 30 14 16 1011.5 - 0.0
08/07:30pm 13.5 5.9 0.5 41 5.7 WSW 30 37 16 20 1011.4 - 0.0
08/07:20pm 13.9 6.6 -0.1 38 6.1 W 28 33 15 18 1011.3 - 0.0
08/07:10pm 14.2 7.4 0.9 40 5.9 W 26 30 14 16 1011.0 - 0.0
08/07:00pm 14.5 7.6 0.1 37 6.3 W 26 33 14 18 1010.9 - 0.0
08/06:50pm 14.7 7.7 -0.2 36 6.5 W 26 30 14 16 1010.8 - 0.0
08/06:40pm 14.6 6.5 -0.1 36 6.4 W 32 37 17 20 1010.3 - 0.0
08/06:30pm 14.9 7.6 0.1 36 6.5 WSW 28 32 15 17 1010.3 - 0.0
08/06:20pm 14.8 6.8 0.4 37 6.4 WSW 32 37 17 20 1010.3 - 0.0
08/06:10pm 14.9 6.7 0.1 36 6.5 W 33 41 18 22 1010.2 - 0.0
08/06:00pm 15.3 8.4 0.3 36 6.7 W 26 30 14 16 1010.2 - 0.0
08/05:50pm 15.4 8.2 0.6 36 6.6 W 28 35 15 19 1010.1 - 0.0
08/05:40pm 15.6 8.4 0.7 36 6.7 W 28 30 15 16 1010.0 - 0.0
08/05:30pm 15.7 8.9 0.5 35 6.8 W 26 33 14 18 1010.0 - 0.0
08/05:20pm 16.2 10.2 0.8 35 7.0 W 22 28 12 15 1010.0 - 0.0
08/05:10pm 15.5 8.0 1.1 37 6.5 W 30 33 16 18 1009.8 - 0.0
08/05:00pm 15.5 7.5 0.2 35 6.8 W 32 33 17 18 1009.9 - 0.0
08/04:50pm 15.8 8.1 -0.2 33 7.1 W 30 37 16 20 1009.8 - 0.0
08/04:40pm 15.8 9.1 1.7 38 6.5 W 26 30 14 16 1009.8 - 0.0
08/04:30pm 15.5 8.2 0.2 35 6.8 W 28 32 15 17 1009.8 - 0.0
08/04:20pm 15.2 6.6 0.1 35 6.7 W 35 39 19 21 1009.8 - 0.0
08/04:10pm 15.3 7.1 0.5 36 6.6 W 33 41 18 22 1010.0 - 0.0
08/04:00pm 15.0 7.8 0.5 37 6.5 W 28 32 15 17 1009.8 - 0.0
08/03:50pm 15.7 8.3 2.1 40 6.3 WSW 30 43 16 23 1009.8 - 0.0
08/03:40pm 14.6 7.8 0.9 39 6.1 W 26 30 14 16 1009.7 - 0.0
08/03:30pm 16.0 9.8 2.2 39 6.4 W 24 28 13 15 1009.7 - 0.0
08/03:20pm 15.8 9.9 1.5 38 6.6 W 22 33 12 18 1009.8 - 0.0
08/03:10pm 15.7 7.8 1.2 37 6.6 WSW 32 41 17 22 1009.7 - 0.0
08/03:00pm 15.4 7.3 0.9 37 6.5 WSW 33 43 18 23 1009.6 - 0.0
08/02:50pm 14.2 6.2 0.6 39 6.0 WSW 32 39 17 21 1009.6 - 0.0
08/02:40pm 15.5 7.6 1.2 38 6.5 WSW 32 35 17 19 1009.9 - 0.0
08/02:30pm 15.6 8.5 1.6 38 6.4 WSW 28 35 15 19 1009.7 - 0.0
08/02:20pm 15.5 9.3 2.4 41 6.1 W 24 37 13 20 1009.6 - 0.0
08/02:10pm 14.9 7.8 1.4 40 6.1 W 28 43 15 23 1009.6 - 0.0
08/02:00pm 15.2 8.8 1.0 38 6.4 W 24 33 13 18 1009.6 - 0.0
08/01:50pm 14.9 6.4 1.2 39 6.2 WSW 35 44 19 24 1009.6 - 0.0
08/01:40pm 14.9 7.3 3.0 44 5.6 WSW 32 48 17 26 1009.6 - 0.0
08/01:30pm 13.8 5.3 0.8 41 5.8 W 35 39 19 21 1009.5 - 0.0
08/01:20pm 14.3 6.5 1.5 42 5.8 WSW 32 37 17 20 1009.9 - 0.0
08/01:10pm 14.2 4.9 0.9 40 5.9 WSW 39 48 21 26 1009.6 - 0.0
08/01:00pm 14.5 7.8 1.5 41 5.9 W 26 32 14 17 1009.6 - 0.0
08/12:50pm 13.8 6.1 2.2 45 5.3 W 32 43 17 23 1009.7 - 0.0
08/12:40pm 14.5 7.5 2.2 43 5.7 W 28 33 15 18 1009.6 - 0.0
08/12:30pm 14.5 7.2 2.5 44 5.6 W 30 39 16 21 1009.6 - 0.0
08/12:20pm 14.3 6.4 2.1 43 5.6 W 33 46 18 25 1009.3 - 0.0
08/12:10pm 13.3 4.6 1.8 45 5.2 W 37 43 20 23 1009.4 - 0.0
08/12:00pm 12.9 5.9 1.8 47 5.0 W 28 37 15 20 1009.6 - 0.0
08/11:50am 12.6 6.4 2.0 48 4.8 WNW 24 28 13 15 1009.5 - 0.0
08/11:40am 13.0 7.0 3.1 51 4.6 W 24 30 13 16 1009.4 - 0.0
08/11:30am 12.5 5.2 2.7 51 4.5 W 30 39 16 21 1009.4 - 0.0
08/11:20am 12.0 4.3 3.2 55 4.1 WNW 33 43 18 23 1009.3 - 0.0
08/11:10am 12.0 4.8 3.2 55 4.1 WNW 30 37 16 20 1009.1 - 0.0
08/11:00am 12.5 6.0 2.8 51 4.4 W 26 33 14 18 1009.3 - 0.0
08/10:50am 12.1 5.2 2.7 52 4.3 W 28 39 15 21 1009.2 - 0.0
08/10:40am 12.0 4.8 2.9 53 4.2 W 30 33 16 18 1009.1 - 0.0
08/10:30am 12.4 6.4 3.1 53 4.3 WNW 24 30 13 16 1009.3 - 0.0
08/10:20am 11.3 5.5 4.6 63 3.2 WNW 24 32 13 17 1009.2 - 0.0
08/10:10am 11.2 5.3 4.1 61 3.3 W 24 30 13 16 1009.2 - 0.0
08/10:00am 10.8 4.4 3.4 60 3.4 W 26 32 14 17 1009.2 - 0.0
08/09:50am 11.0 5.4 3.7 60 3.4 W 22 30 12 16 1009.2 - 0.0
08/09:40am 11.2 6.2 3.4 58 3.6 WNW 19 26 10 14 1009.1 - 0.0
08/09:30am 10.7 5.4 3.1 59 3.5 WNW 20 26 11 14 1009.2 - 0.0
08/09:20am 10.6 6.0 3.7 62 3.2 NW 17 22 9 12 1009.0 - 0.0
08/09:10am 10.5 5.8 3.1 60 3.4 W 17 20 9 11 1009.1 - 0.0
08/09:00am 10.3 5.2 3.3 62 3.2 W 19 22 10 12 1009.0 - 0.0
08/08:50am 9.7 4.4 3.1 63 3.0 WNW 20 26 11 14 1008.9 - 0.0
08/08:40am 9.6 4.8 2.8 62 3.0 WNW 17 24 9 13 1008.7 - 0.0
08/08:30am 9.2 4.5 2.9 64 2.8 NW 17 22 9 12 1008.6 - 0.0
08/08:20am 8.9 4.1 2.8 65 2.7 NW 17 24 9 13 1008.6 - 0.0
08/08:10am 8.5 2.4 3.0 68 2.4 NNW 24 28 13 15 1008.4 - 0.0
08/08:00am 8.2 2.1 3.0 70 2.3 NW 24 28 13 15 1008.2 - 0.0
08/07:50am 8.1 1.3 3.2 71 2.2 NNW 28 32 15 17 1008.0 - 0.0
08/07:40am 8.1 1.7 3.4 72 2.1 NW 26 33 14 18 1007.7 - 0.0
08/07:30am 8.0 1.7 3.5 73 2.0 NW 26 28 14 15 1007.7 - 0.0
08/07:20am 8.0 1.3 3.7 74 1.9 NW 28 32 15 17 1007.4 - 0.0
08/07:10am 8.2 2.4 4.3 76 1.8 NW 24 26 13 14 1007.3 - 0.0
08/07:00am 8.2 1.7 4.6 78 1.7 NNW 28 35 15 19 1007.1 - 0.0
08/06:50am 8.4 1.8 4.1 74 2.0 NNW 28 33 15 18 1007.0 - 0.0
08/06:40am 8.2 1.9 3.7 73 2.0 NNW 26 30 14 16 1006.9 - 0.0
08/06:30am 8.2 3.0 3.4 72 2.2 NNW 20 24 11 13 1006.8 - 0.0
08/06:20am 8.4 3.2 3.3 70 2.3 NNW 20 24 11 13 1006.8 - 0.0
08/06:10am 8.4 3.7 3.1 69 2.4 NNW 17 22 9 12 1006.7 - 0.0
08/06:00am 8.6 3.5 3.2 69 2.4 NNW 19 20 10 11 1006.7 - 0.0
08/05:50am 8.9 2.8 2.6 64 2.8 NW 24 28 13 15 1006.8 - 0.0
08/05:40am 8.9 3.6 2.9 66 2.7 WNW 20 24 11 13 1006.5 - 0.0
08/05:30am 9.5 4.7 2.5 61 3.1 NW 17 28 9 15 1006.4 - 0.0
08/05:20am 9.8 3.7 2.5 60 3.3 WNW 24 37 13 20 1006.3 - 0.0
08/05:10am 9.7 4.5 2.6 61 3.2 WNW 19 35 10 19 1006.3 - 0.0
08/05:00am 10.0 2.7 2.6 60 3.3 W 30 43 16 23 1006.2 - 0.0
08/04:50am 10.3 2.1 2.5 58 3.5 W 35 43 19 23 1006.1 - 0.0
08/04:40am 10.4 3.1 2.5 58 3.5 W 30 39 16 21 1006.2 - 0.0
08/04:30am 10.7 2.1 2.4 56 3.7 W 37 44 20 24 1006.1 - 0.0
08/04:20am 10.8 1.4 2.3 55 3.8 W 41 50 22 27 1006.0 - 0.0
08/04:10am 10.9 2.2 2.3 55 3.8 W 37 44 20 24 1005.4 - 0.0
08/04:00am 10.8 2.9 2.2 55 3.8 W 33 43 18 23 1005.2 - 0.0
08/03:50am 11.0 2.0 2.3 55 3.9 W 39 54 21 29 1005.1 - 0.0
08/03:40am 11.2 1.4 2.2 54 4.0 W 43 50 23 27 1005.0 - 0.0
08/03:30am 11.5 2.0 1.7 51 4.4 W 41 50 22 27 1004.7 - 0.0
08/03:20am 11.9 2.4 1.7 49 4.5 W 41 52 22 28 1004.8 - 0.0
08/03:10am 11.9 1.7 1.2 48 4.7 W 44 52 24 28 1004.9 - 0.0
08/03:00am 12.0 3.2 3.6 56 3.9 W 39 54 21 29 1004.9 - 0.0
08/02:50am 12.1 3.1 4.5 59 3.6 W 41 52 22 28 1004.8 - 0.0
08/02:40am 12.4 3.1 4.9 60 3.6 W 43 57 23 31 1004.6 - 0.0
08/02:30am 12.7 3.1 4.2 56 4.0 W 44 56 24 30 1004.4 - 0.0
08/02:20am 12.8 3.4 4.4 56 4.0 W 43 48 23 26 1004.5 - 0.0
08/02:10am 13.1 2.7 4.1 54 4.3 W 48 56 26 30 1004.8 - 0.0
08/02:00am 13.4 3.2 5.4 58 3.9 W 48 63 26 34 1004.7 - 0.0
08/01:50am 13.5 6.1 8.3 71 2.7 W 37 44 20 24 1004.8 - 0.0
08/01:40am 13.9 5.2 9.9 77 2.1 W 46 56 25 30 1005.0 - 0.0
08/01:30am 14.0 6.3 10.2 78 2.1 W 41 48 22 26 1004.9 - 0.0
08/01:20am 14.0 7.2 10.8 81 1.8 W 37 44 20 24 1005.4 - 0.0
08/01:10am 14.0 8.3 11.2 83 1.5 W 32 35 17 19 1005.0 - 0.0
08/01:00am 14.2 8.4 11.5 84 1.5 WNW 33 39 18 21 1005.0 - 0.0
08/12:50am 14.5 7.6 11.5 82 1.7 W 39 46 21 25 1005.0 - 0.0
08/12:40am 14.6 7.8 12.0 84 1.5 WNW 39 48 21 26 1005.0 - 0.0
08/12:30am 14.6 7.8 12.0 84 1.5 WNW 39 46 21 25 1005.2 - 0.0
08/12:20am 14.6 7.9 12.2 85 1.4 WNW 39 44 21 24 1005.2 - 0.0
08/12:10am 14.7 7.1 11.9 83 1.6 WNW 43 48 23 26 1005.2 - 0.0
08/12:00am 14.6 7.9 12.2 85 1.4 WNW 39 48 21 26 1005.5 - 0.0
 
Date/Time
EDT
Temp
°C
App
Temp
°C
Dew
Point
°C
Rel
Hum
%
Delta-T
°C
Wind Press
QNH
hPa
Press
MSL
hPa
Rain since
9am
mm
Dir  Spd
km/h
Gust
km/h
Spd
kts
Gust
kts
07/11:50pm 14.5 7.8 12.4 87 1.2 WNW 39 43 21 23 1005.5 - 0.0
07/11:40pm 14.3 8.3 13.2 93 0.6 WNW 37 41 20 22 1005.3 - 0.0
07/11:30pm 14.0 8.9 13.6 97 0.2 WNW 33 35 18 19 1005.2 - 0.0
07/11:20pm 13.8 8.7 13.8 100 0.0 NW 33 44 18 24 1005.1 - 0.0
07/11:10pm 13.8 7.2 13.7 99 0.1 NW 41 48 22 26 1005.0 - 0.0
07/11:00pm 13.8 7.1 13.5 98 0.2 NW 41 44 22 24 1005.0 - 0.0
07/10:50pm 13.7 7.4 13.4 98 0.2 NW 39 43 21 23 1004.8 - 0.0
07/10:40pm 13.7 8.5 13.4 98 0.2 NW 33 37 18 20 1005.1 - 0.0
07/10:30pm 13.7 8.1 13.4 98 0.2 NW 35 37 19 20 1005.1 - 0.0
07/10:20pm 14.0 8.4 13.4 96 0.3 NW 35 37 19 20 1005.2 - 0.0
07/10:10pm 14.2 8.9 13.1 93 0.6 NW 33 39 18 21 1005.3 - 0.0
07/10:00pm 14.2 10.6 12.9 92 0.7 NW 24 33 13 18 1005.4 - 0.0
07/09:50pm 14.2 10.9 12.8 91 0.8 NW 22 30 12 16 1005.6 - 0.0
07/09:40pm 14.2 11.3 12.9 92 0.7 NW 20 24 11 13 1005.9 - 0.0
07/09:30pm 14.3 11.5 13.2 93 0.6 NW 20 24 11 13 1005.7 - 0.0
07/09:20pm 14.4 10.5 13.2 92 0.7 NW 26 30 14 16 1005.4 - 0.0
07/09:10pm 14.4 10.5 13.3 93 0.6 NW 26 30 14 16 1005.3 - 0.0
07/09:00pm 14.4 10.8 13.2 92 0.7 NW 24 26 13 14 1005.4 - 0.0
07/08:50pm 14.4 10.4 13.1 92 0.7 NW 26 32 14 17 1005.4 - 0.0
07/08:40pm 14.5 10.1 12.9 90 0.9 NW 28 33 15 18 1005.1 - 0.0
07/08:30pm 14.7 9.8 12.6 87 1.2 NW 30 33 16 18 1004.9 - 0.0
07/08:20pm 14.8 9.8 12.1 84 1.5 NNW 30 33 16 18 1004.9 - 0.0
07/08:10pm 15.0 9.7 11.3 78 2.1 NNW 30 33 16 18 1004.8 - 0.0
07/08:00pm 15.3 9.6 9.9 70 2.9 NNW 30 32 16 17 1004.9 - 0.0
07/07:50pm 15.9 9.7 9.4 65 3.5 NNW 32 35 17 19 1004.9 - 0.0
07/07:40pm 16.3 10.3 8.6 60 4.1 NNW 30 33 16 18 1005.0 - 0.0
07/07:30pm 16.7 10.1 7.9 56 4.6 NNW 32 37 17 20 1004.8 - 0.0
07/07:20pm 17.1 10.4 7.3 52 5.1 NNW 32 35 17 19 1004.9 - 0.0
07/07:10pm 17.6 10.9 7.3 51 5.4 NNW 32 33 17 18 1004.9 - 0.0
07/07:00pm 18.0 11.1 7.2 49 5.6 NNW 33 37 18 20 1004.9 - 0.0
07/06:50pm 18.2 11.2 6.9 47 5.9 NW 33 39 18 21 1004.8 - 0.0
07/06:40pm 18.3 11.2 6.6 46 6.1 NNW 33 39 18 21 1004.6 - 0.0
07/06:30pm 18.6 11.2 6.6 45 6.2 NNW 35 37 19 20 1004.5 - 0.0
07/06:20pm 18.2 10.5 6.9 47 5.9 NNW 37 44 20 24 1004.4 - 0.0
07/06:10pm 18.8 12.5 7.5 47 6.0 NNW 30 39 16 21 1004.7 - 0.0
07/06:00pm 18.7 12.3 6.9 46 6.2 NW 30 33 16 18 1004.8 - 0.0
07/05:50pm 18.1 11.3 5.0 42 6.6 NW 30 37 16 20 1004.9 - 0.0
07/05:40pm 18.0 10.7 4.5 41 6.7 NW 32 35 17 19 1005.0 - 0.0
07/05:30pm 18.1 10.6 4.3 40 6.8 NW 33 37 18 20 1004.9 - 0.0
07/05:20pm 18.2 9.9 4.0 39 7.0 NW 37 43 20 23 1004.7 - 0.0
07/05:10pm 18.3 10.3 4.0 38 7.0 NW 35 41 19 22 1004.8 - 0.0
07/05:00pm 18.3 9.9 3.7 38 7.1 NW 37 43 20 23 1004.9 - 0.0
07/04:50pm 18.3 9.9 3.9 38 7.1 NW 37 41 20 22 1005.1 - 0.0
07/04:40pm 18.8 11.2 3.8 37 7.4 NW 33 43 18 23 1005.2 - 0.0
07/04:30pm 19.2 10.9 4.2 37 7.5 NW 37 43 20 23 1005.2 - 0.0
07/04:20pm 18.9 11.5 3.8 36 7.4 NW 32 37 17 20 1005.2 - 0.0
07/04:10pm 18.9 11.4 4.3 38 7.3 NW 33 41 18 22 1005.4 - 0.0
07/04:00pm 19.1 10.7 3.5 35 7.6 NW 37 43 20 23 1005.4 - 0.0
07/03:50pm 19.5 10.9 4.5 37 7.5 NW 39 44 21 24 1005.3 - 0.0
07/03:40pm 19.6 10.9 4.3 36 7.6 NW 39 44 21 24 1005.4 - 0.0
07/03:30pm 19.1 9.9 3.7 36 7.6 NW 41 46 22 25 1005.5 - 0.0
07/03:20pm 19.0 10.0 4.6 38 7.2 NW 41 46 22 25 1005.4 - 0.0
07/03:10pm 19.5 10.9 4.4 37 7.5 NW 39 44 21 24 1005.8 - 0.0
07/03:00pm 20.1 11.8 4.4 35 7.9 NW 37 46 20 25 1005.7 - 0.0
07/02:50pm 19.9 11.3 4.5 36 7.7 NW 39 44 21 24 1006.1 - 0.0
07/02:40pm 19.4 10.7 4.0 36 7.6 NW 39 43 21 23 1006.1 - 0.0
07/02:30pm 19.7 11.8 4.1 35 7.8 NW 35 43 19 23 1006.3 - 0.0
07/02:20pm 19.1 10.1 4.6 38 7.3 NW 41 50 22 27 1006.2 - 0.0
07/02:10pm 19.0 9.4 4.4 38 7.3 NW 44 50 24 27 1006.0 - 0.0
07/02:00pm 19.1 9.1 4.5 38 7.3 NW 46 54 25 29 1006.1 - 0.0
07/01:50pm 19.6 10.8 5.6 40 7.2 NW 41 46 22 25 1006.3 - 0.0
07/01:40pm 20.8 14.7 6.5 39 7.5 NW 28 43 15 23 1006.3 - 0.0
07/01:30pm 20.2 14.6 5.4 38 7.6 WNW 24 32 13 17 1006.9 - 0.0
07/01:20pm 20.2 13.4 5.3 37 7.6 WNW 30 37 16 20 1007.1 - 0.0
07/01:10pm 20.3 12.8 6.4 40 7.3 WNW 35 39 19 21 1006.9 - 0.0
07/01:00pm 20.4 13.6 5.1 36 7.8 WNW 30 37 16 20 1007.2 - 0.0
07/12:50pm 20.1 13.5 5.9 39 7.3 WNW 30 35 16 19 1007.2 - 0.0
07/12:40pm 20.6 12.2 5.6 37 7.7 WNW 39 50 21 27 1007.3 - 0.0
07/12:30pm 20.2 11.1 4.2 35 8.0 WNW 41 48 22 26 1007.2 - 0.0
07/12:20pm 20.3 13.4 4.8 36 7.8 WNW 30 41 16 22 1007.5 - 0.0
07/12:10pm 19.9 12.0 4.3 35 7.8 WNW 35 41 19 22 1007.4 - 0.0
07/12:00pm 19.6 10.0 3.3 34 8.0 WNW 43 46 23 25 1007.7 - 0.0
07/11:50am 19.9 10.0 2.8 32 8.3 WNW 44 50 24 27 1007.3 - 0.0
07/11:40am 20.3 13.1 4.8 36 7.8 WNW 32 41 17 22 1007.5 - 0.0
07/11:30am 20.3 13.6 5.5 38 7.6 WNW 30 41 16 22 1007.3 - 0.0
07/11:20am 20.2 13.8 5.3 37 7.6 WNW 28 39 15 21 1007.7 - 0.0
07/11:10am 20.1 13.8 5.8 39 7.4 W 28 37 15 20 1007.8 - 0.0
07/11:00am 19.7 12.7 5.8 40 7.1 W 32 35 17 19 1007.8 - 0.0
07/10:50am 19.2 10.2 4.6 38 7.3 WNW 41 52 22 28 1007.8 - 0.0
07/10:40am 19.3 12.0 5.6 40 7.0 WNW 33 41 18 22 1007.7 - 0.0
07/10:30am 19.1 12.6 6.7 44 6.5 WNW 30 33 16 18 1008.1 - 0.0
07/10:20am 18.5 11.2 7.0 47 6.0 WNW 35 37 19 20 1008.0 - 0.0
07/10:10am 18.3 11.5 7.5 49 5.7 WNW 33 37 18 20 1008.1 - 0.0
07/10:00am 18.1 12.7 7.8 51 5.4 NW 26 32 14 17 1008.0 - 0.0
07/09:50am 17.7 13.8 9.4 58 4.5 NNW 20 24 11 13 1008.3 - 0.0
07/09:40am 17.3 13.7 10.5 64 3.8 NNW 20 26 11 14 1008.2 - 0.0
07/09:30am 17.0 13.2 9.7 62 4.0 NNW 20 22 11 12 1008.1 - 0.0
07/09:20am 16.5 13.9 9.3 62 3.9 NNW 13 17 7 9 1008.1 - 0.0
07/09:10am 15.9 13.6 10.5 70 3.0 NNW 13 15 7 8 1008.1 - 0.0
07/09:00am 15.4 13.6 11.0 75 2.4 NNW 11 15 6 8 1008.3 - 0.0
07/08:50am 14.8 12.4 10.1 73 2.5 NNW 13 15 7 8 1008.3 - 0.0
07/08:40am 14.3 11.8 9.6 73 2.5 NNW 13 15 7 8 1008.4 - 0.0
07/08:30am 13.9 12.1 9.6 75 2.3 NNW 9 13 5 7 1008.2 - 0.0
07/08:20am 13.3 11.4 9.2 76 2.2 NNW 9 11 5 6 1008.1 - 0.0
07/08:10am 12.6 10.6 10.0 84 1.4 NNW 11 13 6 7 1008.1 - 0.0
07/08:00am 12.4 10.3 9.6 83 1.5 NNW 11 13 6 7 1008.2 - 0.0
07/07:50am 12.1 9.8 9.1 82 1.6 NW 11 13 6 7 1008.2 - 0.0
07/07:40am 11.9 9.6 8.9 82 1.6 NNW 11 11 6 6 1008.0 - 0.0
07/07:30am 11.6 9.3 9.1 85 1.3 NW 11 13 6 7 1007.9 - 0.0
07/07:20am 11.5 9.1 8.8 83 1.4 NNW 11 13 6 7 1007.8 - 0.0
07/07:10am 11.4 8.9 8.4 82 1.5 NNW 11 13 6 7 1007.7 - 0.0
07/07:00am 11.4 8.9 8.3 81 1.6 NNW 11 13 6 7 1007.7 - 0.0
07/06:50am 11.9 9.4 8.0 77 2.0 NNW 11 13 6 7 1007.6 - 0.0
07/06:40am 12.2 9.4 7.0 70 2.6 NW 11 11 6 6 1007.5 - 0.0
07/06:30am 12.3 9.4 6.6 68 2.8 NW 11 13 6 7 1007.5 - 0.0
07/06:20am 12.0 9.1 6.7 70 2.6 WNW 11 13 6 7 1007.5 - 0.0
07/06:10am 12.0 8.9 7.3 73 2.4 WNW 13 13 7 7 1007.4 - 0.0
07/06:00am 12.0 8.7 6.6 69 2.7 WNW 13 13 7 7 1007.5 - 0.0
07/05:50am 11.9 8.6 6.6 70 2.6 WNW 13 15 7 8 1007.5 - 0.0
07/05:40am 12.0 8.8 6.7 70 2.6 WNW 13 15 7 8 1007.5 - 0.0
07/05:30am 12.3 9.0 6.3 67 3.0 NW 13 13 7 7 1007.5 - 0.0
07/05:20am 12.4 8.7 6.4 67 3.0 NW 15 19 8 10 1007.6 - 0.0
07/05:10am 12.4 8.6 6.0 65 3.1 WNW 15 19 8 10 1007.6 - 0.0
07/05:00am 12.8 9.4 6.0 63 3.3 WNW 13 17 7 9 1007.5 - 0.0
07/04:50am 12.9 9.1 5.8 62 3.5 WNW 15 17 8 9 1007.5 - 0.0
07/04:40am 13.0 9.2 5.9 62 3.5 WNW 15 15 8 8 1007.5 - 0.0
07/04:30am 13.0 9.6 5.8 61 3.5 WNW 13 15 7 8 1007.5 - 0.0
07/04:20am 13.0 9.6 5.7 61 3.6 WNW 13 17 7 9 1007.5 - 0.0
07/04:10am 13.0 10.7 5.7 61 3.6 W 7 11 4 6 1007.4 - 0.0
07/04:00am 13.2 10.9 5.6 60 3.7 W 7 9 4 5 1007.5 - 0.0
07/03:50am 13.3 10.6 5.6 59 3.8 W 9 9 5 5 1007.5 - 0.0
07/03:40am 13.3 10.6 5.7 60 3.7 W 9 11 5 6 1007.4 - 0.0
07/03:30am 13.6 10.5 5.7 59 3.9 W 11 13 6 7 1007.5 - 0.0
07/03:20am 13.9 11.2 5.6 57 4.1 WNW 9 13 5 7 1007.6 - 0.0
07/03:10am 13.8 11.1 5.7 58 4.0 WNW 9 11 5 6 1007.7 - 0.0
07/03:00am 13.7 10.7 5.8 59 3.9 WNW 11 13 6 7 1007.9 - 0.0
07/02:50am 13.9 10.9 6.2 59 3.8 WNW 11 13 6 7 1008.1 - 0.0
07/02:40am 14.1 10.3 5.8 57 4.1 WNW 15 17 8 9 1008.1 - 0.0
07/02:30am 14.0 10.6 5.9 58 4.0 WNW 13 15 7 8 1008.1 - 0.0
07/02:20am 13.8 10.5 6.2 60 3.8 WNW 13 15 7 8 1008.3 - 0.0
07/02:10am 13.9 10.2 6.3 60 3.8 WNW 15 17 8 9 1008.3 - 0.0
07/02:00am 14.0 10.3 6.4 60 3.8 NW 15 15 8 8 1008.4 - 0.0
07/01:50am 14.0 10.7 6.5 60 3.8 WNW 13 15 7 8 1008.4 - 0.0
07/01:40am 14.3 10.6 6.5 59 3.9 WNW 15 17 8 9 1008.5 - 0.0
07/01:30am 14.7 10.9 6.0 56 4.3 WNW 15 17 8 9 1008.6 - 0.0
07/01:20am 14.4 11.5 6.4 58 4.0 NW 11 13 6 7 1008.7 - 0.0
07/01:10am 14.6 11.3 6.5 58 4.1 NW 13 13 7 7 1008.8 - 0.0
07/01:00am 14.8 11.9 6.4 57 4.2 NW 11 15 6 8 1008.8 - 0.0
07/12:50am 14.8 11.8 6.2 56 4.3 WNW 11 13 6 7 1008.9 - 0.0
07/12:40am 14.9 12.0 6.3 56 4.3 WNW 11 13 6 7 1009.0 - 0.0
07/12:30am 14.9 11.9 6.1 55 4.4 WNW 11 13 6 7 1008.9 - 0.0
07/12:20am 15.0 12.0 6.1 55 4.5 NW 11 13 6 7 1009.1 - 0.0
07/12:10am 15.5 12.5 6.1 53 4.7 NW 11 13 6 7 1009.2 - 0.0
07/12:00am 15.9 12.9 5.9 51 5.0 NW 11 11 6 6 1009.1 - 0.0
 
Date/Time
EDT
Temp
°C
App
Temp
°C
Dew
Point
°C
Rel
Hum
%
Delta-T
°C
Wind Press
QNH
hPa
Press
MSL
hPa
Rain since
9am
mm
Dir  Spd
km/h
Gust
km/h
Spd
kts
Gust
kts
06/11:50pm 16.0 13.3 5.8 50 5.1 WNW 9 11 5 6 1009.1 - 0.0
06/11:40pm 16.2 13.2 5.8 50 5.2 W 11 13 6 7 1009.1 - 0.0
06/11:30pm 16.0 12.9 5.6 50 5.2 WNW 11 13 6 7 1009.3 - 0.0
06/11:20pm 15.8 12.8 5.8 51 5.0 WNW 11 13 6 7 1009.6 - 0.0
06/11:10pm 15.8 12.4 6.0 52 4.9 WNW 13 13 7 7 1009.6 - 0.0
06/11:00pm 15.9 12.1 6.0 52 5.0 WNW 15 15 8 8 1009.8 - 0.0
06/10:50pm 15.8 12.0 5.9 51 5.0 NW 15 17 8 9 1009.7 - 0.0
06/10:40pm 15.8 11.7 6.0 52 4.9 NW 17 17 9 9 1009.8 - 0.0
06/10:30pm 16.0 11.9 6.0 51 5.0 NW 17 17 9 9 1009.7 - 0.0
06/10:20pm 16.1 12.3 6.0 51 5.1 WNW 15 17 8 9 1009.7 - 0.0
06/10:10pm 16.2 12.4 5.8 50 5.2 NW 15 15 8 8 1009.8 - 0.0
06/10:00pm 16.1 12.3 5.9 50 5.1 WNW 15 15 8 8 1009.7 - 0.0
06/09:50pm 16.2 12.4 5.9 50 5.2 WNW 15 17 8 9 1009.8 - 0.0
06/09:40pm 16.3 12.5 5.8 49 5.3 WNW 15 15 8 8 1009.6 - 0.0
06/09:30pm 16.6 12.4 5.7 48 5.5 WNW 17 19 9 10 1009.5 - 0.0
06/09:20pm 16.6 12.4 5.7 48 5.5 WNW 17 19 9 10 1009.4 - 0.0
06/09:10pm 16.6 12.8 5.7 48 5.5 WNW 15 17 8 9 1009.3 - 0.0
06/09:00pm 16.8 12.6 5.7 48 5.6 WNW 17 19 9 10 1009.1 - 0.0
06/08:50pm 16.9 12.7 5.6 47 5.7 WNW 17 17 9 9 1009.1 - 0.0
06/08:40pm 16.8 12.6 5.7 48 5.6 WNW 17 19 9 10 1009.0 - 0.0
06/08:30pm 16.9 12.7 5.7 47 5.6 WNW 17 19 9 10 1009.0 - 0.0
06/08:20pm 17.1 12.9 5.7 47 5.7 NW 17 20 9 11 1009.1 - 0.0
06/08:10pm 17.3 13.1 5.7 46 5.9 WNW 17 20 9 11 1009.1 - 0.0
06/08:00pm 17.7 13.5 5.9 46 6.0 NW 17 24 9 13 1009.0 - 0.0
06/07:50pm 18.1 13.6 6.2 45 6.1 NW 19 22 10 12 1009.0 - 0.0
06/07:40pm 18.5 13.4 5.8 43 6.5 WNW 22 26 12 14 1009.0 - 0.0
06/07:30pm 18.8 14.0 5.7 42 6.7 WNW 20 22 11 12 1009.0 - 0.0
06/07:20pm 18.8 13.7 5.8 42 6.6 WNW 22 28 12 15 1008.9 - 0.0
06/07:10pm 18.7 12.5 6.1 43 6.5 WNW 28 33 15 18 1008.7 - 0.0
06/07:00pm 19.2 12.9 5.8 41 6.9 WNW 28 33 15 18 1008.6 - 0.0
06/06:50pm 19.2 14.2 6.6 44 6.6 W 22 28 12 15 1008.6 - 0.0
06/06:40pm 18.9 13.1 6.2 43 6.5 W 26 30 14 16 1008.5 - 0.0
06/06:30pm 20.1 15.5 6.5 41 7.1 WNW 20 28 11 15 1008.3 - 0.0
06/06:20pm 19.9 14.3 7.3 44 6.7 WNW 26 35 14 19 1008.2 - 0.0
06/06:10pm 20.3 13.8 6.3 40 7.3 WNW 30 33 16 18 1008.0 - 0.0
06/06:00pm 20.8 15.8 6.5 39 7.5 WNW 22 30 12 16 1007.9 - 0.0
06/05:50pm 20.4 14.3 6.6 40 7.2 WNW 28 32 15 17 1008.0 - 0.0
06/05:40pm 20.7 15.4 6.7 40 7.4 WNW 24 30 13 16 1007.8 - 0.0
06/05:30pm 20.8 15.5 7.0 40 7.3 W 24 30 13 16 1007.9 - 0.0
06/05:20pm 20.7 15.0 6.7 40 7.4 WNW 26 33 14 18 1007.8 - 0.0
06/05:10pm 20.6 13.7 6.5 40 7.4 WNW 32 35 17 19 1007.9 - 0.0
06/05:00pm 20.8 14.5 7.6 42 7.1 WNW 30 41 16 22 1008.0 - 0.0
06/04:50pm 21.1 15.6 7.5 41 7.3 WNW 26 35 14 19 1007.9 - 0.0
06/04:40pm 20.9 13.9 7.0 40 7.4 WNW 33 41 18 22 1008.0 - 0.0
06/04:30pm 20.7 14.8 7.4 42 7.1 WNW 28 32 15 17 1008.1 - 0.0
06/04:20pm 20.7 13.9 6.8 40 7.3 WNW 32 35 17 19 1007.9 - 0.0
06/04:10pm 19.8 12.8 6.2 41 7.0 WNW 32 39 17 21 1008.0 - 0.0
06/04:00pm 20.8 15.6 7.3 41 7.2 WNW 24 30 13 16 1008.1 - 0.0
06/03:50pm 20.3 14.3 7.0 42 7.0 NW 28 33 15 18 1008.1 - 0.0
06/03:40pm 20.2 15.2 7.9 45 6.6 NW 24 32 13 17 1008.1 - 0.0
06/03:30pm 19.2 13.8 8.2 49 5.9 NW 26 35 14 19 1008.2 - 0.0
06/03:20pm 19.5 14.6 8.6 49 5.9 WNW 24 28 13 15 1008.3 - 0.0
06/03:10pm 20.8 15.7 9.1 47 6.4 W 26 32 14 17 1008.4 - 0.0
06/03:00pm 20.7 16.4 9.5 48 6.2 W 22 30 12 16 1008.4 - 0.0
06/02:50pm 20.0 15.5 10.0 52 5.6 WNW 24 35 13 19 1008.4 - 0.0
06/02:40pm 20.4 16.1 9.4 49 6.1 NW 22 26 12 14 1008.4 - 0.0
06/02:30pm 20.0 14.3 8.4 47 6.3 NW 28 32 15 17 1008.4 - 0.0
06/02:20pm 20.3 16.1 9.6 50 5.9 WNW 22 30 12 16 1008.6 - 0.0
06/02:10pm 18.7 13.8 8.6 52 5.4 NW 24 32 13 17 1008.6 - 0.0
06/02:00pm 19.6 16.5 8.8 49 5.9 NNW 15 22 8 12 1008.7 - 0.0
06/01:50pm 20.0 17.3 8.8 48 6.1 WNW 13 19 7 10 1008.8 - 0.0
06/01:40pm 18.8 15.9 8.0 49 5.8 WNW 13 20 7 11 1009.0 - 0.0
06/01:30pm 19.4 16.1 8.1 48 6.1 WNW 15 17 8 9 1009.0 - 0.0
06/01:20pm 17.7 13.5 8.2 53 5.0 WNW 20 22 11 12 1009.1 - 0.0
06/01:10pm 17.8 14.6 8.4 54 5.0 W 15 20 8 11 1009.3 - 0.0
06/01:00pm 18.9 15.6 8.1 49 5.8 WNW 15 17 8 9 1009.3 - 0.0
06/12:50pm 18.1 14.9 8.6 54 5.1 NW 15 20 8 11 1009.3 - 0.0
06/12:40pm 18.4 15.1 8.2 51 5.4 NW 15 19 8 10 1009.2 - 0.0
06/12:30pm 19.9 18.3 8.2 46 6.3 N 6 15 3 8 1009.4 - 0.0
06/12:20pm 20.3 17.9 8.7 47 6.3 NNE 11 17 6 9 1009.4 - 0.0
06/12:10pm 21.2 19.7 9.1 46 6.7 NNE 7 11 4 6 1009.5 - 0.0
06/12:00pm 21.0 19.6 9.6 48 6.3 NNE 7 13 4 7 1009.5 - 0.0
06/11:50am 18.4 16.6 8.1 51 5.5 NW 7 9 4 5 1009.5 - 0.0
06/11:40am 17.9 16.0 7.7 51 5.4 N 7 11 4 6 1009.6 - 0.0
06/11:30am 19.8 18.4 9.6 51 5.6 ENE 7 13 4 7 1009.7 - 0.0
06/11:20am 20.0 18.4 7.8 45 6.5 NNE 6 9 3 5 1009.6 - 0.0
06/11:10am 18.3 17.3 8.7 53 5.2 NNW 4 6 2 3 1009.7 - 0.0
06/11:00am 18.3 15.9 7.0 47 5.9 N 9 13 5 7 1009.9 - 0.0
06/10:50am 19.8 16.7 7.3 44 6.6 NNE 13 17 7 9 1009.8 - 0.0
06/10:40am 19.1 16.2 9.7 54 5.2 ENE 15 17 8 9 1009.8 - 0.0
06/10:30am 18.4 17.2 9.7 57 4.8 ESE 6 9 3 5 1009.9 - 0.0
06/10:20am 17.9 15.6 7.6 51 5.4 E 9 13 5 7 1009.9 - 0.0
06/10:10am 17.8 16.1 11.2 65 3.7 E 11 15 6 8 1010.0 - 0.0
06/10:00am 17.2 15.4 9.6 61 4.1 E 9 15 5 8 1010.0 - 0.0
06/09:50am 17.2 14.4 9.9 62 4.0 E 15 19 8 10 1010.0 - 0.0

Other formats

Comma delimited format used in spreadsheet applications
http://www.bom.gov.au/fwo/IDN60801/IDN60801.99763.axf

JavaScript Object Notation format (JSON) in row-major order
http://www.bom.gov.au/fwo/IDN60801/IDN60801.99763.json

Data quality

Most of these data are generated automatically and are frequently updated. Quality checks on data are not normally performed. It is possible for incorrect values to appear. Refer to information at About Latest Weather Observations and please check the disclaimer before using these data.